sensor_id;sensor_type;location;lat;lon;timestamp;P1;durP1;ratioP1;P2;durP2;ratioP2
15982;SDS011;14442;50.196;8.096;2024-01-16T00:02:16;1.33;;;1.03;;
15982;SDS011;14442;50.196;8.096;2024-01-16T00:04:44;0.90;;;0.90;;
15982;SDS011;14442;50.196;8.096;2024-01-16T00:07:11;1.40;;;0.80;;
15982;SDS011;14442;50.196;8.096;2024-01-16T00:09:37;1.10;;;0.70;;
15982;SDS011;14442;50.196;8.096;2024-01-16T00:12:04;1.20;;;0.93;;
15982;SDS011;14442;50.196;8.096;2024-01-16T00:14:34;1.47;;;1.07;;
15982;SDS011;14442;50.196;8.096;2024-01-16T00:17:01;1.43;;;0.73;;
15982;SDS011;14442;50.196;8.096;2024-01-16T00:19:28;0.80;;;0.80;;
15982;SDS011;14442;50.196;8.096;2024-01-16T00:21:56;2.20;;;0.90;;
15982;SDS011;14442;50.196;8.096;2024-01-16T00:24:23;1.37;;;0.97;;
15982;SDS011;14442;50.196;8.096;2024-01-16T00:26:50;1.00;;;0.80;;
15982;SDS011;14442;50.196;8.096;2024-01-16T00:29:16;1.37;;;1.20;;
15982;SDS011;14442;50.196;8.096;2024-01-16T00:31:43;1.43;;;1.10;;
15982;SDS011;14442;50.196;8.096;2024-01-16T00:34:10;1.20;;;1.10;;
15982;SDS011;14442;50.196;8.096;2024-01-16T00:36:36;3.70;;;1.37;;
15982;SDS011;14442;50.196;8.096;2024-01-16T00:39:04;2.17;;;1.27;;
15982;SDS011;14442;50.196;8.096;2024-01-16T00:41:32;1.83;;;1.40;;
15982;SDS011;14442;50.196;8.096;2024-01-16T00:43:58;1.50;;;1.20;;
15982;SDS011;14442;50.196;8.096;2024-01-16T00:46:25;2.43;;;1.33;;
15982;SDS011;14442;50.196;8.096;2024-01-16T00:48:52;2.23;;;1.40;;
15982;SDS011;14442;50.196;8.096;2024-01-16T00:51:19;1.60;;;1.00;;
15982;SDS011;14442;50.196;8.096;2024-01-16T00:53:45;0.93;;;0.83;;
15982;SDS011;14442;50.196;8.096;2024-01-16T00:56:14;1.40;;;1.00;;
15982;SDS011;14442;50.196;8.096;2024-01-16T00:58:40;1.33;;;0.93;;
15982;SDS011;14442;50.196;8.096;2024-01-16T01:01:07;1.23;;;0.70;;
15982;SDS011;14442;50.196;8.096;2024-01-16T01:03:34;0.93;;;0.90;;
15982;SDS011;14442;50.196;8.096;2024-01-16T01:06:00;1.17;;;0.77;;
15982;SDS011;14442;50.196;8.096;2024-01-16T01:08:27;0.93;;;0.93;;
15982;SDS011;14442;50.196;8.096;2024-01-16T01:10:54;1.40;;;0.80;;
15982;SDS011;14442;50.196;8.096;2024-01-16T01:13:22;0.60;;;0.60;;
15982;SDS011;14442;50.196;8.096;2024-01-16T01:15:50;1.00;;;0.70;;
15982;SDS011;14442;50.196;8.096;2024-01-16T01:18:16;0.90;;;0.80;;
15982;SDS011;14442;50.196;8.096;2024-01-16T01:20:43;1.60;;;0.50;;
15982;SDS011;14442;50.196;8.096;2024-01-16T01:23:10;0.80;;;0.70;;
15982;SDS011;14442;50.196;8.096;2024-01-16T01:25:37;1.73;;;0.67;;
15982;SDS011;14442;50.196;8.096;2024-01-16T01:28:04;0.70;;;0.60;;
15982;SDS011;14442;50.196;8.096;2024-01-16T01:30:32;0.77;;;0.57;;
15982;SDS011;14442;50.196;8.096;2024-01-16T01:32:59;0.67;;;0.43;;
15982;SDS011;14442;50.196;8.096;2024-01-16T01:35:26;1.33;;;0.80;;
15982;SDS011;14442;50.196;8.096;2024-01-16T01:37:52;0.93;;;0.70;;
15982;SDS011;14442;50.196;8.096;2024-01-16T01:40:20;1.00;;;0.50;;
15982;SDS011;14442;50.196;8.096;2024-01-16T01:42:47;0.97;;;0.60;;
15982;SDS011;14442;50.196;8.096;2024-01-16T01:45:14;0.83;;;0.60;;
15982;SDS011;14442;50.196;8.096;2024-01-16T01:47:42;0.60;;;0.47;;
15982;SDS011;14442;50.196;8.096;2024-01-16T01:50:09;1.33;;;0.60;;
15982;SDS011;14442;50.196;8.096;2024-01-16T01:52:36;0.53;;;0.53;;
15982;SDS011;14442;50.196;8.096;2024-01-16T01:55:06;0.60;;;0.50;;
15982;SDS011;14442;50.196;8.096;2024-01-16T01:57:36;0.73;;;0.40;;
15982;SDS011;14442;50.196;8.096;2024-01-16T02:00:04;0.50;;;0.50;;
15982;SDS011;14442;50.196;8.096;2024-01-16T02:02:32;0.70;;;0.60;;
15982;SDS011;14442;50.196;8.096;2024-01-16T02:05:01;0.30;;;0.30;;
15982;SDS011;14442;50.196;8.096;2024-01-16T02:07:29;0.50;;;0.40;;
15982;SDS011;14442;50.196;8.096;2024-01-16T02:09:57;1.10;;;0.60;;
15982;SDS011;14442;50.196;8.096;2024-01-16T02:12:25;0.70;;;0.30;;
15982;SDS011;14442;50.196;8.096;2024-01-16T02:14:52;0.87;;;0.50;;
15982;SDS011;14442;50.196;8.096;2024-01-16T02:17:19;0.33;;;0.33;;
15982;SDS011;14442;50.196;8.096;2024-01-16T02:19:45;0.77;;;0.20;;
15982;SDS011;14442;50.196;8.096;2024-01-16T02:22:14;1.03;;;0.50;;
15982;SDS011;14442;50.196;8.096;2024-01-16T02:24:46;0.57;;;0.37;;
15982;SDS011;14442;50.196;8.096;2024-01-16T02:27:13;0.93;;;0.33;;
15982;SDS011;14442;50.196;8.096;2024-01-16T02:29:40;0.67;;;0.50;;
15982;SDS011;14442;50.196;8.096;2024-01-16T02:32:07;0.70;;;0.40;;
15982;SDS011;14442;50.196;8.096;2024-01-16T02:34:35;0.50;;;0.33;;
15982;SDS011;14442;50.196;8.096;2024-01-16T02:37:02;0.97;;;0.47;;
15982;SDS011;14442;50.196;8.096;2024-01-16T02:39:29;0.70;;;0.40;;
15982;SDS011;14442;50.196;8.096;2024-01-16T02:41:57;1.07;;;0.50;;
15982;SDS011;14442;50.196;8.096;2024-01-16T02:44:24;0.30;;;0.30;;
15982;SDS011;14442;50.196;8.096;2024-01-16T02:46:51;0.47;;;0.40;;
15982;SDS011;14442;50.196;8.096;2024-01-16T02:49:18;0.50;;;0.30;;
15982;SDS011;14442;50.196;8.096;2024-01-16T02:51:45;0.30;;;0.30;;
15982;SDS011;14442;50.196;8.096;2024-01-16T02:54:11;0.33;;;0.33;;
15982;SDS011;14442;50.196;8.096;2024-01-16T02:56:39;0.30;;;0.30;;
15982;SDS011;14442;50.196;8.096;2024-01-16T02:59:07;0.70;;;0.47;;
15982;SDS011;14442;50.196;8.096;2024-01-16T03:01:33;0.57;;;0.40;;
15982;SDS011;14442;50.196;8.096;2024-01-16T03:04:00;0.97;;;0.30;;
15982;SDS011;14442;50.196;8.096;2024-01-16T03:06:27;0.40;;;0.40;;
15982;SDS011;14442;50.196;8.096;2024-01-16T03:08:54;0.73;;;0.40;;
15982;SDS011;14442;50.196;8.096;2024-01-16T03:11:21;0.63;;;0.47;;
15982;SDS011;14442;50.196;8.096;2024-01-16T03:13:47;0.43;;;0.40;;
15982;SDS011;14442;50.196;8.096;2024-01-16T03:16:18;0.87;;;0.40;;
15982;SDS011;14442;50.196;8.096;2024-01-16T03:18:45;0.87;;;0.47;;
15982;SDS011;14442;50.196;8.096;2024-01-16T03:21:13;0.40;;;0.20;;
15982;SDS011;14442;50.196;8.096;2024-01-16T03:23:40;1.17;;;0.43;;
15982;SDS011;14442;50.196;8.096;2024-01-16T03:26:06;0.97;;;0.40;;
15982;SDS011;14442;50.196;8.096;2024-01-16T03:28:37;0.40;;;0.30;;
15982;SDS011;14442;50.196;8.096;2024-01-16T03:31:04;0.70;;;0.40;;
15982;SDS011;14442;50.196;8.096;2024-01-16T03:33:32;0.53;;;0.43;;
15982;SDS011;14442;50.196;8.096;2024-01-16T03:36:00;1.80;;;0.50;;
15982;SDS011;14442;50.196;8.096;2024-01-16T03:38:27;0.53;;;0.30;;
15982;SDS011;14442;50.196;8.096;2024-01-16T03:40:54;0.47;;;0.30;;
15982;SDS011;14442;50.196;8.096;2024-01-16T03:43:21;0.20;;;0.20;;
15982;SDS011;14442;50.196;8.096;2024-01-16T03:45:48;0.67;;;0.30;;
15982;SDS011;14442;50.196;8.096;2024-01-16T03:48:15;0.67;;;0.57;;
15982;SDS011;14442;50.196;8.096;2024-01-16T03:50:43;0.33;;;0.33;;
15982;SDS011;14442;50.196;8.096;2024-01-16T03:53:10;0.83;;;0.50;;
15982;SDS011;14442;50.196;8.096;2024-01-16T03:55:37;0.40;;;0.40;;
15982;SDS011;14442;50.196;8.096;2024-01-16T03:58:04;0.53;;;0.30;;
15982;SDS011;14442;50.196;8.096;2024-01-16T04:00:31;0.50;;;0.20;;
15982;SDS011;14442;50.196;8.096;2024-01-16T04:02:58;0.20;;;0.20;;
15982;SDS011;14442;50.196;8.096;2024-01-16T04:05:25;0.40;;;0.40;;
15982;SDS011;14442;50.196;8.096;2024-01-16T04:07:53;0.87;;;0.43;;
15982;SDS011;14442;50.196;8.096;2024-01-16T04:10:20;0.30;;;0.30;;
15982;SDS011;14442;50.196;8.096;2024-01-16T04:12:47;0.33;;;0.30;;
15982;SDS011;14442;50.196;8.096;2024-01-16T04:15:14;0.30;;;0.30;;
15982;SDS011;14442;50.196;8.096;2024-01-16T04:17:41;0.83;;;0.40;;
15982;SDS011;14442;50.196;8.096;2024-01-16T04:20:08;0.50;;;0.27;;
15982;SDS011;14442;50.196;8.096;2024-01-16T04:22:35;0.83;;;0.50;;
15982;SDS011;14442;50.196;8.096;2024-01-16T04:25:04;0.40;;;0.30;;
15982;SDS011;14442;50.196;8.096;2024-01-16T04:27:31;0.73;;;0.40;;
15982;SDS011;14442;50.196;8.096;2024-01-16T04:29:57;0.83;;;0.40;;
15982;SDS011;14442;50.196;8.096;2024-01-16T04:32:24;0.20;;;0.20;;
15982;SDS011;14442;50.196;8.096;2024-01-16T04:34:52;0.43;;;0.40;;
15982;SDS011;14442;50.196;8.096;2024-01-16T04:37:19;0.53;;;0.33;;
15982;SDS011;14442;50.196;8.096;2024-01-16T04:39:45;0.40;;;0.37;;
15982;SDS011;14442;50.196;8.096;2024-01-16T04:42:13;0.40;;;0.30;;
15982;SDS011;14442;50.196;8.096;2024-01-16T04:44:42;0.30;;;0.30;;
15982;SDS011;14442;50.196;8.096;2024-01-16T04:47:09;0.37;;;0.33;;
15982;SDS011;14442;50.196;8.096;2024-01-16T04:49:36;1.90;;;0.40;;
15982;SDS011;14442;50.196;8.096;2024-01-16T04:52:03;0.47;;;0.30;;
15982;SDS011;14442;50.196;8.096;2024-01-16T04:54:31;0.53;;;0.30;;
15982;SDS011;14442;50.196;8.096;2024-01-16T04:56:57;0.50;;;0.30;;
15982;SDS011;14442;50.196;8.096;2024-01-16T04:59:25;1.30;;;0.40;;
15982;SDS011;14442;50.196;8.096;2024-01-16T05:01:52;1.83;;;0.70;;
15982;SDS011;14442;50.196;8.096;2024-01-16T05:04:19;0.83;;;0.40;;
15982;SDS011;14442;50.196;8.096;2024-01-16T05:06:50;0.70;;;0.23;;
15982;SDS011;14442;50.196;8.096;2024-01-16T05:09:17;2.57;;;0.40;;
15982;SDS011;14442;50.196;8.096;2024-01-16T05:11:45;0.83;;;0.40;;
15982;SDS011;14442;50.196;8.096;2024-01-16T05:14:12;0.30;;;0.27;;
15982;SDS011;14442;50.196;8.096;2024-01-16T05:16:39;3.00;;;0.57;;
15982;SDS011;14442;50.196;8.096;2024-01-16T05:19:06;0.50;;;0.30;;
15982;SDS011;14442;50.196;8.096;2024-01-16T05:21:33;1.03;;;0.30;;
15982;SDS011;14442;50.196;8.096;2024-01-16T05:23:59;1.13;;;0.60;;
15982;SDS011;14442;50.196;8.096;2024-01-16T05:26:26;0.40;;;0.40;;
15982;SDS011;14442;50.196;8.096;2024-01-16T05:28:53;0.90;;;0.30;;
15982;SDS011;14442;50.196;8.096;2024-01-16T05:31:20;2.13;;;0.43;;
15982;SDS011;14442;50.196;8.096;2024-01-16T05:33:48;2.17;;;0.50;;
15982;SDS011;14442;50.196;8.096;2024-01-16T05:36:14;2.00;;;0.40;;
15982;SDS011;14442;50.196;8.096;2024-01-16T05:38:41;2.03;;;0.40;;
15982;SDS011;14442;50.196;8.096;2024-01-16T05:41:08;0.93;;;0.50;;
15982;SDS011;14442;50.196;8.096;2024-01-16T05:43:35;1.13;;;0.30;;
15982;SDS011;14442;50.196;8.096;2024-01-16T05:46:02;0.77;;;0.40;;
15982;SDS011;14442;50.196;8.096;2024-01-16T05:48:29;0.67;;;0.40;;
15982;SDS011;14442;50.196;8.096;2024-01-16T05:50:57;0.50;;;0.33;;
15982;SDS011;14442;50.196;8.096;2024-01-16T05:53:23;0.93;;;0.50;;
15982;SDS011;14442;50.196;8.096;2024-01-16T05:55:50;0.43;;;0.40;;
15982;SDS011;14442;50.196;8.096;2024-01-16T05:58:18;0.40;;;0.40;;
15982;SDS011;14442;50.196;8.096;2024-01-16T06:00:45;1.33;;;0.40;;
15982;SDS011;14442;50.196;8.096;2024-01-16T06:03:12;0.43;;;0.43;;
15982;SDS011;14442;50.196;8.096;2024-01-16T06:05:39;1.17;;;0.40;;
15982;SDS011;14442;50.196;8.096;2024-01-16T06:08:07;0.47;;;0.40;;
15982;SDS011;14442;50.196;8.096;2024-01-16T06:10:33;1.50;;;0.50;;
15982;SDS011;14442;50.196;8.096;2024-01-16T06:13:00;0.60;;;0.50;;
15982;SDS011;14442;50.196;8.096;2024-01-16T06:15:27;0.40;;;0.40;;
15982;SDS011;14442;50.196;8.096;2024-01-16T06:17:54;0.40;;;0.40;;
15982;SDS011;14442;50.196;8.096;2024-01-16T06:20:20;0.73;;;0.60;;
15982;SDS011;14442;50.196;8.096;2024-01-16T06:22:49;1.20;;;0.50;;
15982;SDS011;14442;50.196;8.096;2024-01-16T06:25:17;0.60;;;0.60;;
15982;SDS011;14442;50.196;8.096;2024-01-16T06:27:43;1.00;;;0.67;;
15982;SDS011;14442;50.196;8.096;2024-01-16T06:30:11;0.70;;;0.70;;
15982;SDS011;14442;50.196;8.096;2024-01-16T06:32:38;1.37;;;0.70;;
15982;SDS011;14442;50.196;8.096;2024-01-16T06:35:05;1.10;;;0.90;;
15982;SDS011;14442;50.196;8.096;2024-01-16T06:37:32;1.00;;;0.60;;
15982;SDS011;14442;50.196;8.096;2024-01-16T06:39:59;1.40;;;0.50;;
15982;SDS011;14442;50.196;8.096;2024-01-16T06:42:27;0.67;;;0.67;;
15982;SDS011;14442;50.196;8.096;2024-01-16T06:44:54;1.17;;;0.70;;
15982;SDS011;14442;50.196;8.096;2024-01-16T06:47:21;1.60;;;1.00;;
15982;SDS011;14442;50.196;8.096;2024-01-16T06:49:48;1.03;;;0.83;;
15982;SDS011;14442;50.196;8.096;2024-01-16T06:52:15;0.70;;;0.60;;
15982;SDS011;14442;50.196;8.096;2024-01-16T06:54:42;0.80;;;0.80;;
15982;SDS011;14442;50.196;8.096;2024-01-16T06:57:08;0.70;;;0.60;;
15982;SDS011;14442;50.196;8.096;2024-01-16T06:59:40;2.23;;;0.83;;
15982;SDS011;14442;50.196;8.096;2024-01-16T07:02:06;0.80;;;0.80;;
15982;SDS011;14442;50.196;8.096;2024-01-16T07:04:36;0.93;;;0.67;;
15982;SDS011;14442;50.196;8.096;2024-01-16T07:07:03;1.83;;;0.80;;
15982;SDS011;14442;50.196;8.096;2024-01-16T07:09:35;1.40;;;0.90;;
15982;SDS011;14442;50.196;8.096;2024-01-16T07:12:02;1.00;;;0.87;;
15982;SDS011;14442;50.196;8.096;2024-01-16T07:14:29;1.30;;;1.00;;
15982;SDS011;14442;50.196;8.096;2024-01-16T07:16:58;1.17;;;1.03;;
15982;SDS011;14442;50.196;8.096;2024-01-16T07:19:25;1.20;;;0.90;;
15982;SDS011;14442;50.196;8.096;2024-01-16T07:21:51;2.10;;;1.20;;
15982;SDS011;14442;50.196;8.096;2024-01-16T07:24:18;1.27;;;1.00;;
15982;SDS011;14442;50.196;8.096;2024-01-16T07:26:45;1.33;;;1.23;;
15982;SDS011;14442;50.196;8.096;2024-01-16T07:29:12;1.63;;;1.20;;
15982;SDS011;14442;50.196;8.096;2024-01-16T07:31:38;1.30;;;1.13;;
15982;SDS011;14442;50.196;8.096;2024-01-16T07:34:08;1.37;;;1.20;;
15982;SDS011;14442;50.196;8.096;2024-01-16T07:36:35;1.20;;;1.10;;
15982;SDS011;14442;50.196;8.096;2024-01-16T07:39:01;1.30;;;1.20;;
15982;SDS011;14442;50.196;8.096;2024-01-16T07:41:28;1.40;;;1.17;;
15982;SDS011;14442;50.196;8.096;2024-01-16T07:43:56;2.03;;;1.33;;
15982;SDS011;14442;50.196;8.096;2024-01-16T07:46:22;1.33;;;1.23;;
15982;SDS011;14442;50.196;8.096;2024-01-16T07:48:50;1.27;;;1.17;;
15982;SDS011;14442;50.196;8.096;2024-01-16T07:51:18;1.20;;;1.10;;
15982;SDS011;14442;50.196;8.096;2024-01-16T07:53:45;1.40;;;1.10;;
15982;SDS011;14442;50.196;8.096;2024-01-16T07:56:13;1.50;;;1.30;;
15982;SDS011;14442;50.196;8.096;2024-01-16T07:58:40;1.00;;;0.90;;
15982;SDS011;14442;50.196;8.096;2024-01-16T08:01:08;1.30;;;1.07;;
15982;SDS011;14442;50.196;8.096;2024-01-16T08:03:35;1.30;;;0.93;;
15982;SDS011;14442;50.196;8.096;2024-01-16T08:06:04;1.47;;;1.00;;
15982;SDS011;14442;50.196;8.096;2024-01-16T08:08:32;1.07;;;0.97;;
15982;SDS011;14442;50.196;8.096;2024-01-16T08:10:59;1.00;;;0.90;;
15982;SDS011;14442;50.196;8.096;2024-01-16T08:13:26;0.83;;;0.80;;
15982;SDS011;14442;50.196;8.096;2024-01-16T08:15:53;1.13;;;0.93;;
15982;SDS011;14442;50.196;8.096;2024-01-16T08:18:20;0.83;;;0.70;;
15982;SDS011;14442;50.196;8.096;2024-01-16T08:20:46;1.13;;;1.03;;
15982;SDS011;14442;50.196;8.096;2024-01-16T08:23:13;1.53;;;1.00;;
15982;SDS011;14442;50.196;8.096;2024-01-16T08:25:41;1.13;;;0.93;;
15982;SDS011;14442;50.196;8.096;2024-01-16T08:28:08;1.30;;;1.07;;
15982;SDS011;14442;50.196;8.096;2024-01-16T08:30:35;2.23;;;1.00;;
15982;SDS011;14442;50.196;8.096;2024-01-16T08:33:02;2.10;;;1.30;;
15982;SDS011;14442;50.196;8.096;2024-01-16T08:35:29;1.93;;;1.20;;
15982;SDS011;14442;50.196;8.096;2024-01-16T08:37:56;3.97;;;1.40;;
15982;SDS011;14442;50.196;8.096;2024-01-16T08:40:23;5.60;;;1.30;;
15982;SDS011;14442;50.196;8.096;2024-01-16T08:42:51;2.77;;;1.30;;
15982;SDS011;14442;50.196;8.096;2024-01-16T08:45:20;6.93;;;1.50;;
15982;SDS011;14442;50.196;8.096;2024-01-16T08:47:46;2.53;;;1.57;;
15982;SDS011;14442;50.196;8.096;2024-01-16T08:50:14;3.43;;;1.33;;
15982;SDS011;14442;50.196;8.096;2024-01-16T08:52:41;2.93;;;1.47;;
15982;SDS011;14442;50.196;8.096;2024-01-16T08:55:08;4.37;;;1.30;;
15982;SDS011;14442;50.196;8.096;2024-01-16T08:57:35;4.00;;;1.03;;
15982;SDS011;14442;50.196;8.096;2024-01-16T09:00:05;2.63;;;1.30;;
15982;SDS011;14442;50.196;8.096;2024-01-16T09:02:33;1.63;;;1.03;;
15982;SDS011;14442;50.196;8.096;2024-01-16T09:05:00;1.93;;;0.97;;
15982;SDS011;14442;50.196;8.096;2024-01-16T09:07:27;1.37;;;1.13;;
15982;SDS011;14442;50.196;8.096;2024-01-16T09:09:54;1.33;;;1.00;;
15982;SDS011;14442;50.196;8.096;2024-01-16T09:12:20;2.80;;;1.07;;
15982;SDS011;14442;50.196;8.096;2024-01-16T09:14:47;3.03;;;1.03;;
15982;SDS011;14442;50.196;8.096;2024-01-16T09:17:15;3.80;;;1.07;;
15982;SDS011;14442;50.196;8.096;2024-01-16T09:19:42;1.90;;;1.30;;
15982;SDS011;14442;50.196;8.096;2024-01-16T09:22:08;3.10;;;1.00;;
15982;SDS011;14442;50.196;8.096;2024-01-16T09:24:35;6.10;;;1.13;;
15982;SDS011;14442;50.196;8.096;2024-01-16T09:27:02;4.80;;;1.20;;
15982;SDS011;14442;50.196;8.096;2024-01-16T09:29:31;4.07;;;1.23;;
15982;SDS011;14442;50.196;8.096;2024-01-16T09:31:58;4.43;;;1.17;;
15982;SDS011;14442;50.196;8.096;2024-01-16T09:34:26;3.30;;;1.10;;
15982;SDS011;14442;50.196;8.096;2024-01-16T09:36:55;4.37;;;0.90;;
15982;SDS011;14442;50.196;8.096;2024-01-16T09:39:24;3.67;;;1.03;;
15982;SDS011;14442;50.196;8.096;2024-01-16T09:41:51;1.60;;;0.80;;
15982;SDS011;14442;50.196;8.096;2024-01-16T09:44:17;3.07;;;1.00;;
15982;SDS011;14442;50.196;8.096;2024-01-16T09:46:45;3.03;;;0.80;;
15982;SDS011;14442;50.196;8.096;2024-01-16T09:49:14;2.10;;;0.90;;
15982;SDS011;14442;50.196;8.096;2024-01-16T09:51:45;2.47;;;0.77;;
15982;SDS011;14442;50.196;8.096;2024-01-16T09:54:12;5.87;;;0.60;;
15982;SDS011;14442;50.196;8.096;2024-01-16T09:56:39;1.30;;;0.83;;
15982;SDS011;14442;50.196;8.096;2024-01-16T09:59:09;4.00;;;0.70;;
15982;SDS011;14442;50.196;8.096;2024-01-16T10:01:37;2.30;;;0.63;;
15982;SDS011;14442;50.196;8.096;2024-01-16T10:04:04;1.60;;;0.57;;
15982;SDS011;14442;50.196;8.096;2024-01-16T10:06:31;3.20;;;0.70;;
15982;SDS011;14442;50.196;8.096;2024-01-16T10:09:01;3.63;;;0.70;;
15982;SDS011;14442;50.196;8.096;2024-01-16T10:11:28;7.63;;;0.80;;
15982;SDS011;14442;50.196;8.096;2024-01-16T10:13:55;3.33;;;0.60;;
15982;SDS011;14442;50.196;8.096;2024-01-16T10:16:22;2.73;;;0.70;;
15982;SDS011;14442;50.196;8.096;2024-01-16T10:18:52;2.47;;;0.60;;
15982;SDS011;14442;50.196;8.096;2024-01-16T10:21:30;1.03;;;0.67;;
15982;SDS011;14442;50.196;8.096;2024-01-16T10:23:57;2.87;;;0.73;;
15982;SDS011;14442;50.196;8.096;2024-01-16T10:26:38;5.43;;;0.60;;
15982;SDS011;14442;50.196;8.096;2024-01-16T10:29:05;2.10;;;0.63;;
15982;SDS011;14442;50.196;8.096;2024-01-16T10:31:33;2.40;;;0.70;;
15982;SDS011;14442;50.196;8.096;2024-01-16T10:34:00;3.47;;;0.70;;
15982;SDS011;14442;50.196;8.096;2024-01-16T10:36:27;5.27;;;0.90;;
15982;SDS011;14442;50.196;8.096;2024-01-16T10:38:55;2.97;;;0.60;;
15982;SDS011;14442;50.196;8.096;2024-01-16T10:41:31;5.00;;;0.80;;
15982;SDS011;14442;50.196;8.096;2024-01-16T10:44:03;5.50;;;1.33;;
15982;SDS011;14442;50.196;8.096;2024-01-16T10:46:31;3.23;;;0.63;;
15982;SDS011;14442;50.196;8.096;2024-01-16T10:48:59;4.73;;;0.93;;
15982;SDS011;14442;50.196;8.096;2024-01-16T10:51:27;3.70;;;0.80;;
15982;SDS011;14442;50.196;8.096;2024-01-16T10:53:56;3.03;;;0.50;;
15982;SDS011;14442;50.196;8.096;2024-01-16T10:56:25;1.80;;;0.60;;
15982;SDS011;14442;50.196;8.096;2024-01-16T10:58:57;2.53;;;0.50;;
15982;SDS011;14442;50.196;8.096;2024-01-16T11:01:31;4.37;;;0.70;;
15982;SDS011;14442;50.196;8.096;2024-01-16T11:03:59;2.50;;;1.00;;
15982;SDS011;14442;50.196;8.096;2024-01-16T11:06:27;5.83;;;0.47;;
15982;SDS011;14442;50.196;8.096;2024-01-16T11:08:54;2.00;;;0.50;;
15982;SDS011;14442;50.196;8.096;2024-01-16T11:11:23;3.40;;;0.50;;
15982;SDS011;14442;50.196;8.096;2024-01-16T11:13:51;1.73;;;0.40;;
15982;SDS011;14442;50.196;8.096;2024-01-16T11:16:19;1.90;;;0.70;;
15982;SDS011;14442;50.196;8.096;2024-01-16T11:18:48;2.30;;;0.43;;
15982;SDS011;14442;50.196;8.096;2024-01-16T11:21:15;1.97;;;0.73;;
15982;SDS011;14442;50.196;8.096;2024-01-16T11:23:42;1.03;;;0.30;;
15982;SDS011;14442;50.196;8.096;2024-01-16T11:26:25;1.60;;;0.43;;
15982;SDS011;14442;50.196;8.096;2024-01-16T11:28:54;1.10;;;0.50;;
15982;SDS011;14442;50.196;8.096;2024-01-16T11:31:29;0.73;;;0.30;;
15982;SDS011;14442;50.196;8.096;2024-01-16T11:33:57;1.10;;;0.40;;
15982;SDS011;14442;50.196;8.096;2024-01-16T11:39:17;0.60;;;0.40;;
15982;SDS011;14442;50.196;8.096;2024-01-16T11:41:48;1.53;;;0.50;;
15982;SDS011;14442;50.196;8.096;2024-01-16T11:47:04;1.20;;;0.40;;
15982;SDS011;14442;50.196;8.096;2024-01-16T11:49:31;1.73;;;0.37;;
15982;SDS011;14442;50.196;8.096;2024-01-16T11:51:57;1.77;;;0.40;;
15982;SDS011;14442;50.196;8.096;2024-01-16T11:54:24;1.30;;;0.40;;
15982;SDS011;14442;50.196;8.096;2024-01-16T11:56:56;2.67;;;0.33;;
15982;SDS011;14442;50.196;8.096;2024-01-16T11:59:58;0.57;;;0.23;;
15982;SDS011;14442;50.196;8.096;2024-01-16T12:02:28;0.60;;;0.37;;
15982;SDS011;14442;50.196;8.096;2024-01-16T12:05:12;1.07;;;0.60;;
15982;SDS011;14442;50.196;8.096;2024-01-16T12:07:43;0.60;;;0.30;;
15982;SDS011;14442;50.196;8.096;2024-01-16T12:10:12;0.77;;;0.30;;
15982;SDS011;14442;50.196;8.096;2024-01-16T12:12:39;0.70;;;0.20;;
15982;SDS011;14442;50.196;8.096;2024-01-16T12:15:06;0.97;;;0.30;;
15982;SDS011;14442;50.196;8.096;2024-01-16T12:17:40;2.70;;;0.30;;
15982;SDS011;14442;50.196;8.096;2024-01-16T12:20:18;1.77;;;0.57;;
15982;SDS011;14442;50.196;8.096;2024-01-16T12:22:51;1.23;;;0.33;;
15982;SDS011;14442;50.196;8.096;2024-01-16T12:25:19;0.73;;;0.40;;
15982;SDS011;14442;50.196;8.096;2024-01-16T12:27:46;0.20;;;0.20;;
15982;SDS011;14442;50.196;8.096;2024-01-16T12:30:19;1.60;;;0.27;;
15982;SDS011;14442;50.196;8.096;2024-01-16T12:32:48;0.83;;;0.50;;
15982;SDS011;14442;50.196;8.096;2024-01-16T12:35:19;0.87;;;0.20;;
15982;SDS011;14442;50.196;8.096;2024-01-16T12:37:57;0.47;;;0.20;;
15982;SDS011;14442;50.196;8.096;2024-01-16T12:40:24;0.63;;;0.30;;
15982;SDS011;14442;50.196;8.096;2024-01-16T12:42:51;0.30;;;0.30;;
15982;SDS011;14442;50.196;8.096;2024-01-16T12:45:19;2.03;;;0.20;;
15982;SDS011;14442;50.196;8.096;2024-01-16T12:47:50;0.37;;;0.20;;
15982;SDS011;14442;50.196;8.096;2024-01-16T12:50:21;0.33;;;0.20;;
15982;SDS011;14442;50.196;8.096;2024-01-16T12:52:49;0.90;;;0.40;;
15982;SDS011;14442;50.196;8.096;2024-01-16T12:55:16;0.37;;;0.30;;
15982;SDS011;14442;50.196;8.096;2024-01-16T12:57:44;0.43;;;0.20;;
15982;SDS011;14442;50.196;8.096;2024-01-16T13:00:21;0.77;;;0.20;;
15982;SDS011;14442;50.196;8.096;2024-01-16T13:02:50;0.20;;;0.20;;
15982;SDS011;14442;50.196;8.096;2024-01-16T13:05:17;2.30;;;0.30;;
15982;SDS011;14442;50.196;8.096;2024-01-16T13:07:44;0.27;;;0.20;;
15982;SDS011;14442;50.196;8.096;2024-01-16T13:10:12;0.70;;;0.20;;
15982;SDS011;14442;50.196;8.096;2024-01-16T13:12:41;0.30;;;0.30;;
15982;SDS011;14442;50.196;8.096;2024-01-16T13:15:07;0.60;;;0.30;;
15982;SDS011;14442;50.196;8.096;2024-01-16T13:17:36;0.40;;;0.37;;
15982;SDS011;14442;50.196;8.096;2024-01-16T13:20:05;0.40;;;0.40;;
15982;SDS011;14442;50.196;8.096;2024-01-16T13:22:33;0.43;;;0.30;;
15982;SDS011;14442;50.196;8.096;2024-01-16T13:25:00;0.43;;;0.20;;
15982;SDS011;14442;50.196;8.096;2024-01-16T13:27:27;0.20;;;0.20;;
15982;SDS011;14442;50.196;8.096;2024-01-16T13:29:54;0.60;;;0.30;;
15982;SDS011;14442;50.196;8.096;2024-01-16T13:32:21;0.53;;;0.40;;
15982;SDS011;14442;50.196;8.096;2024-01-16T13:34:48;0.50;;;0.20;;
15982;SDS011;14442;50.196;8.096;2024-01-16T13:37:18;1.03;;;0.40;;
15982;SDS011;14442;50.196;8.096;2024-01-16T13:39:48;0.57;;;0.20;;
15982;SDS011;14442;50.196;8.096;2024-01-16T13:42:15;0.50;;;0.20;;
15982;SDS011;14442;50.196;8.096;2024-01-16T13:44:44;0.93;;;0.23;;
15982;SDS011;14442;50.196;8.096;2024-01-16T13:47:12;1.17;;;0.20;;
15982;SDS011;14442;50.196;8.096;2024-01-16T13:49:39;0.63;;;0.20;;
15982;SDS011;14442;50.196;8.096;2024-01-16T13:52:06;1.30;;;0.30;;
15982;SDS011;14442;50.196;8.096;2024-01-16T13:54:37;0.30;;;0.30;;
15982;SDS011;14442;50.196;8.096;2024-01-16T13:57:05;0.87;;;0.20;;
15982;SDS011;14442;50.196;8.096;2024-01-16T13:59:32;0.40;;;0.20;;
15982;SDS011;14442;50.196;8.096;2024-01-16T14:01:58;0.87;;;0.20;;
15982;SDS011;14442;50.196;8.096;2024-01-16T14:04:26;0.70;;;0.20;;
15982;SDS011;14442;50.196;8.096;2024-01-16T14:06:52;2.43;;;0.20;;
15982;SDS011;14442;50.196;8.096;2024-01-16T14:09:19;1.30;;;0.50;;
15982;SDS011;14442;50.196;8.096;2024-01-16T14:11:47;0.30;;;0.30;;
15982;SDS011;14442;50.196;8.096;2024-01-16T14:14:14;1.47;;;0.50;;
15982;SDS011;14442;50.196;8.096;2024-01-16T14:16:41;0.47;;;0.40;;
15982;SDS011;14442;50.196;8.096;2024-01-16T14:19:08;0.80;;;0.30;;
15982;SDS011;14442;50.196;8.096;2024-01-16T14:21:34;1.20;;;0.40;;
15982;SDS011;14442;50.196;8.096;2024-01-16T14:24:01;0.80;;;0.33;;
15982;SDS011;14442;50.196;8.096;2024-01-16T14:26:28;0.77;;;0.40;;
15982;SDS011;14442;50.196;8.096;2024-01-16T14:28:56;2.20;;;0.30;;
15982;SDS011;14442;50.196;8.096;2024-01-16T14:31:23;0.80;;;0.30;;
15982;SDS011;14442;50.196;8.096;2024-01-16T14:33:51;1.87;;;0.33;;
15982;SDS011;14442;50.196;8.096;2024-01-16T14:36:18;1.57;;;0.53;;
15982;SDS011;14442;50.196;8.096;2024-01-16T14:38:45;3.23;;;0.50;;
15982;SDS011;14442;50.196;8.096;2024-01-16T14:41:13;1.53;;;0.80;;
15982;SDS011;14442;50.196;8.096;2024-01-16T14:43:41;1.17;;;0.40;;
15982;SDS011;14442;50.196;8.096;2024-01-16T14:46:09;1.80;;;0.30;;
15982;SDS011;14442;50.196;8.096;2024-01-16T14:48:37;0.50;;;0.37;;
15982;SDS011;14442;50.196;8.096;2024-01-16T14:51:04;0.90;;;0.30;;
15982;SDS011;14442;50.196;8.096;2024-01-16T14:53:31;2.33;;;0.40;;
15982;SDS011;14442;50.196;8.096;2024-01-16T14:55:57;1.07;;;0.40;;
15982;SDS011;14442;50.196;8.096;2024-01-16T14:58:24;1.83;;;0.40;;